Time;durP1;ratioP1;P1;durP2;ratioP2;P2;SDS_P1;SDS_P2;PMS_P1;PMS_P2;Temp;Humidity;BMP_temperature;BMP_pressure;BME280_temperature;BME280_humidity;BME280_pressure;Samples;Min_cycle;Max_cycle;Signal;HPM_P1;HPM_P2
2022/08/12 00:43:29;;;;;;;4.77;3.40;;;22.30;99.90;;;;;;5066856;28;20470;-82
2022/08/12 00:48:42;;;;;;;4.20;2.93;;;22.20;99.90;;;;;;5066508;28;20978;-82
2022/08/12 00:51:10;;;;;;;4.90;3.23;;;22.20;99.90;;;;;;5066454;28;20448;-82
2022/08/12 00:53:37;;;;;;;6.63;3.17;;;22.10;99.90;;;;;;5065738;28;20452;-83
2022/08/12 00:56:06;;;;;;;4.87;3.23;;;22.10;99.90;;;;;;5066138;28;20590;-82
2022/08/12 00:58:36;;;;;;;6.00;3.40;;;22.00;99.90;;;;;;5087064;22;20507;-85
2022/08/12 01:01:06;;;;;;;4.60;3.33;;;22.00;99.90;;;;;;5065154;28;20935;-83
2022/08/12 01:11:50;;;;;;;5.90;3.27;;;21.80;99.90;;;;;;5074865;28;20492;-83
2022/08/12 01:14:22;;;;;;;4.40;3.40;;;21.70;99.90;;;;;;5074216;28;20461;-84
2022/08/12 01:16:50;;;;;;;4.80;3.47;;;21.60;99.90;;;;;;5074728;28;20536;-83
2022/08/12 01:19:19;;;;;;;6.73;3.47;;;21.60;99.90;;;;;;5069610;28;20458;-84
2022/08/12 01:22:03;;;;;;;4.67;3.43;;;21.50;99.90;;;;;;5070021;28;20508;-82
2022/08/12 01:24:48;;;;;;;5.03;3.43;;;21.50;99.90;;;;;;5071536;28;20448;-83
2022/08/12 01:27:17;;;;;;;6.70;3.67;;;21.40;99.90;;;;;;5070102;28;20562;-82
2022/08/12 01:29:47;;;;;;;4.80;3.40;;;21.40;99.90;;;;;;5065184;28;20548;-83
2022/08/12 01:32:15;;;;;;;5.13;3.43;;;21.30;99.90;;;;;;5062086;28;20551;-86
2022/08/12 01:34:57;;;;;;;7.07;3.30;;;21.30;99.90;;;;;;5068158;28;20548;-85
2022/08/12 01:37:25;;;;;;;8.00;4.40;;;21.30;99.90;;;;;;5071935;28;20887;-83
2022/08/12 01:39:57;;;;;;;5.40;3.47;;;21.30;99.90;;;;;;5074180;28;20549;-83
2022/08/12 01:42:25;;;;;;;6.70;3.67;;;21.20;99.90;;;;;;5074118;28;20522;-83
2022/08/12 01:44:54;;;;;;;4.83;3.83;;;21.20;99.90;;;;;;5072293;28;20461;-82
2022/08/12 01:47:32;;;;;;;4.63;3.13;;;21.20;99.90;;;;;;5073974;28;21033;-83
2022/08/12 01:50:08;;;;;;;5.33;4.07;;;21.20;99.90;;;;;;5067295;28;20538;-82
2022/08/12 01:52:46;;;;;;;5.13;3.40;;;21.10;99.90;;;;;;5063215;28;20443;-82
2022/08/12 01:55:18;;;;;;;5.83;3.23;;;21.10;99.90;;;;;;5064926;28;20447;-87
2022/08/12 01:57:49;;;;;;;5.53;3.67;;;21.10;99.90;;;;;;5063121;28;20489;-84
2022/08/12 02:00:19;;;;;;;5.87;3.83;;;21.10;99.90;;;;;;5065826;28;21039;-82
2022/08/12 02:02:53;;;;;;;4.60;3.83;;;21.00;99.90;;;;;;5066008;28;20943;-82
2022/08/12 02:11:27;;;;;;;9.20;4.10;;;20.90;99.90;;;;;;5066730;28;20481;-84
2022/08/12 02:14:09;;;;;;;6.73;3.63;;;20.80;99.90;;;;;;5074811;28;20459;-82
2022/08/12 02:16:46;;;;;;;5.20;3.90;;;20.80;99.90;;;;;;5071682;28;20566;-85
2022/08/12 02:19:26;;;;;;;6.80;4.60;;;20.70;99.90;;;;;;5071915;28;20450;-84
2022/08/12 02:22:11;;;;;;;6.07;4.23;;;20.70;99.90;;;;;;5080171;28;20451;-84
2022/08/12 02:24:40;;;;;;;7.30;4.80;;;20.60;99.90;;;;;;5079113;28;20542;-84
2022/08/12 02:27:09;;;;;;;6.30;3.70;;;20.60;99.90;;;;;;5080967;28;20474;-83
2022/08/12 02:29:36;;;;;;;9.40;4.17;;;20.50;99.90;;;;;;5081121;28;20492;-85
2022/08/12 02:32:04;;;;;;;7.30;3.70;;;20.50;99.90;;;;;;5084166;28;20435;-87
2022/08/12 02:34:33;;;;;;;7.60;4.57;;;20.50;99.90;;;;;;5085218;28;20451;-82
2022/08/12 02:37:00;;;;;;;6.40;3.70;;;20.40;99.90;;;;;;5074202;28;20479;-82
2022/08/12 02:39:30;;;;;;;5.10;3.97;;;20.40;99.90;;;;;;5074437;28;20455;-82
2022/08/12 02:42:01;;;;;;;4.00;3.30;;;20.40;99.90;;;;;;5073689;28;20447;-83
2022/08/12 02:44:35;;;;;;;5.17;4.20;;;20.40;99.90;;;;;;5073496;28;20534;-83
2022/08/12 02:47:05;;;;;;;4.33;3.47;;;20.30;99.90;;;;;;5055050;28;20559;-83
2022/08/12 02:49:35;;;;;;;4.70;3.70;;;20.30;99.90;;;;;;5054548;28;20829;-82
2022/08/12 02:52:03;;;;;;;5.30;3.57;;;20.30;99.90;;;;;;5064943;28;20461;-82
2022/08/12 02:54:30;;;;;;;8.77;4.00;;;20.30;99.90;;;;;;5073855;28;20462;-81
2022/08/12 02:56:57;;;;;;;5.00;4.07;;;20.20;99.90;;;;;;5073962;28;21070;-81
2022/08/12 02:59:28;;;;;;;7.20;3.83;;;20.20;99.90;;;;;;5074380;28;20512;-82
2022/08/12 03:02:02;;;;;;;6.27;4.13;;;20.20;99.90;;;;;;5074328;28;20482;-83
2022/08/12 03:04:35;;;;;;;6.80;3.50;;;20.20;99.90;;;;;;5074108;28;20469;-84
2022/08/12 03:07:13;;;;;;;5.77;4.97;;;20.20;99.90;;;;;;5074382;28;20481;-83
2022/08/12 03:09:47;;;;;;;9.07;4.77;;;20.10;99.90;;;;;;5074266;28;20439;-84
2022/08/12 03:12:16;;;;;;;7.57;4.13;;;20.10;99.90;;;;;;5074055;28;20451;-82
2022/08/12 03:14:43;;;;;;;7.43;4.33;;;20.10;99.90;;;;;;5072855;28;20491;-81
2022/08/12 03:17:17;;;;;;;4.53;3.73;;;20.10;99.90;;;;;;5072581;28;20489;-85
2022/08/12 03:19:44;;;;;;;6.83;4.13;;;20.10;99.90;;;;;;5073681;28;20526;-83
2022/08/12 03:22:13;;;;;;;5.97;4.00;;;20.00;99.90;;;;;;5073527;28;20455;-81
2022/08/12 03:24:43;;;;;;;5.97;4.27;;;20.00;99.90;;;;;;5072936;28;20451;-82
2022/08/12 03:27:12;;;;;;;4.77;4.00;;;20.00;99.90;;;;;;5073115;28;20842;-81
2022/08/12 03:29:40;;;;;;;5.33;3.93;;;19.90;99.90;;;;;;5074022;28;20493;-82
2022/08/12 03:32:08;;;;;;;7.83;4.70;;;19.90;99.90;;;;;;5075223;28;20459;-83
2022/08/12 03:34:37;;;;;;;4.73;3.80;;;19.90;99.90;;;;;;5074466;28;20526;-82
2022/08/12 03:37:06;;;;;;;7.10;4.07;;;19.90;99.90;;;;;;5077842;28;20574;-82
2022/08/12 03:39:40;;;;;;;6.33;4.13;;;19.80;99.90;;;;;;5082151;28;20455;-83
2022/08/12 03:42:21;;;;;;;6.63;4.10;;;19.80;99.90;;;;;;5080766;28;20453;-81
2022/08/12 04:01:40;;;;;;;8.60;3.73;;;19.80;99.90;;;;;;5080700;28;20434;-82
2022/08/12 04:04:09;;;;;;;7.07;4.70;;;19.80;99.90;;;;;;5079775;28;20529;-82
2022/08/12 04:06:43;;;;;;;6.63;3.90;;;19.70;99.90;;;;;;5079214;28;20537;-83
2022/08/12 04:09:11;;;;;;;6.30;4.17;;;19.70;99.90;;;;;;5079517;28;20453;-83
2022/08/12 04:14:26;;;;;;;6.03;3.67;;;19.70;99.90;;;;;;5080478;28;20442;-85
2022/08/12 04:16:53;;;;;;;5.30;4.00;;;19.70;99.90;;;;;;5080634;28;20486;-84
2022/08/12 04:19:23;;;;;;;5.33;4.20;;;19.70;99.90;;;;;;5082602;28;20449;-86
2022/08/12 04:21:52;;;;;;;4.80;3.73;;;19.70;99.90;;;;;;5083187;28;20486;-85
2022/08/12 04:24:20;;;;;;;7.43;4.53;;;19.70;99.90;;;;;;5076593;28;21176;-85
2022/08/12 04:26:47;;;;;;;5.60;4.00;;;19.70;99.90;;;;;;5084131;28;22498;-87
2022/08/12 04:29:14;;;;;;;5.10;4.17;;;19.70;99.90;;;;;;5081096;28;21013;-82
2022/08/12 04:31:43;;;;;;;5.73;4.30;;;19.70;99.90;;;;;;5068464;28;20465;-82
2022/08/12 04:34:11;;;;;;;6.00;4.00;;;19.70;99.90;;;;;;5070178;28;20541;-82
2022/08/12 04:36:40;;;;;;;5.97;4.30;;;19.70;99.90;;;;;;5069887;28;20492;-82
2022/08/12 04:39:10;;;;;;;5.87;4.00;;;19.70;99.90;;;;;;5075600;28;20482;-82
2022/08/12 04:41:38;;;;;;;5.43;4.10;;;19.70;99.90;;;;;;5076563;28;20546;-82
2022/08/12 04:44:05;;;;;;;8.00;4.20;;;19.70;99.90;;;;;;5075631;28;20878;-82
2022/08/12 04:46:33;;;;;;;5.70;4.60;;;19.70;99.90;;;;;;5076573;28;20461;-82
2022/08/12 04:49:01;;;;;;;7.90;4.10;;;19.70;99.90;;;;;;5076031;28;20471;-83
2022/08/12 04:51:28;;;;;;;6.50;4.20;;;19.70;99.90;;;;;;5076166;28;20520;-82
2022/08/12 04:53:55;;;;;;;5.60;4.47;;;19.70;99.90;;;;;;5075480;28;20486;-84
2022/08/12 04:56:24;;;;;;;6.80;4.87;;;19.70;99.90;;;;;;5071217;28;20459;-83
2022/08/12 04:58:51;;;;;;;8.17;4.40;;;19.70;99.90;;;;;;5064102;28;21021;-81
2022/08/12 05:01:18;;;;;;;5.77;4.30;;;19.70;99.90;;;;;;5076225;28;20493;-83
2022/08/12 05:03:46;;;;;;;7.07;4.20;;;19.70;99.90;;;;;;5076564;28;20943;-84
2022/08/12 05:06:12;;;;;;;6.87;5.10;;;19.70;99.90;;;;;;5076798;28;20493;-84
2022/08/12 05:08:39;;;;;;;7.77;4.53;;;19.80;99.90;;;;;;5077187;28;20490;-83
2022/08/12 05:11:06;;;;;;;7.30;6.13;;;19.80;99.90;;;;;;5076981;28;20545;-83
2022/08/12 05:13:38;;;;;;;7.30;5.57;;;19.80;99.90;;;;;;5075803;28;20478;-82
2022/08/12 05:16:06;;;;;;;6.70;5.10;;;19.90;99.90;;;;;;5077846;28;20477;-81
2022/08/12 05:18:34;;;;;;;6.40;5.27;;;19.90;99.90;;;;;;5077229;28;20593;-82
2022/08/12 05:21:01;;;;;;;7.10;5.30;;;19.90;99.90;;;;;;5076949;28;20455;-82
2022/08/12 05:23:30;;;;;;;8.47;4.90;;;20.00;99.90;;;;;;5077169;28;20478;-81
2022/08/12 05:25:57;;;;;;;4.93;4.43;;;20.00;99.90;;;;;;5069299;28;20539;-82
2022/08/12 05:28:26;;;;;;;6.53;5.80;;;20.00;99.90;;;;;;5073338;28;20470;-82
2022/08/12 05:30:56;;;;;;;6.20;4.50;;;20.10;99.90;;;;;;5070163;28;20443;-81
2022/08/12 05:33:25;;;;;;;7.40;4.83;;;20.10;99.90;;;;;;5062858;28;20535;-82
2022/08/12 05:35:52;;;;;;;5.33;4.60;;;20.10;99.90;;;;;;5069970;28;20447;-82
2022/08/12 05:41:17;;;;;;;7.00;4.77;;;20.20;99.90;;;;;;5077505;28;20435;-82
2022/08/12 05:43:45;;;;;;;7.33;4.30;;;20.30;99.90;;;;;;5077403;28;20835;-82
2022/08/12 05:46:13;;;;;;;6.07;4.93;;;20.30;99.90;;;;;;5079690;28;21025;-83
2022/08/12 05:48:41;;;;;;;4.70;4.00;;;20.40;99.90;;;;;;5078186;28;20501;-82
2022/08/12 05:51:09;;;;;;;6.27;4.70;;;20.40;99.90;;;;;;5071505;28;20448;-82
2022/08/12 05:53:37;;;;;;;6.70;4.70;;;20.40;99.90;;;;;;5062841;28;20452;-79
2022/08/12 05:56:04;;;;;;;5.17;4.13;;;20.50;99.90;;;;;;5062135;28;20492;-80
2022/08/12 05:58:34;;;;;;;5.83;4.60;;;20.60;99.90;;;;;;5064375;28;20483;-78
2022/08/12 06:01:01;;;;;;;7.90;3.93;;;20.60;99.90;;;;;;5066360;28;20459;-80
2022/08/12 06:03:30;;;;;;;7.40;4.80;;;20.60;99.90;;;;;;5058351;28;20534;-80
2022/08/12 06:05:57;;;;;;;5.40;4.50;;;20.70;99.90;;;;;;5063802;28;20546;-82
2022/08/12 06:08:25;;;;;;;7.17;4.60;;;20.80;99.90;;;;;;5067236;28;20499;-81
2022/08/12 06:10:52;;;;;;;7.13;4.50;;;20.80;99.90;;;;;;5072809;28;21008;-81
2022/08/12 06:13:19;;;;;;;7.13;4.47;;;20.80;99.90;;;;;;5066499;28;20523;-82
2022/08/12 06:15:48;;;;;;;6.47;4.50;;;20.90;99.90;;;;;;5067241;28;20537;-81
2022/08/12 06:18:15;;;;;;;5.93;4.30;;;21.00;99.90;;;;;;5075144;28;20536;-79
2022/08/12 06:20:46;;;;;;;7.20;4.20;;;21.00;99.90;;;;;;5074065;28;21046;-80
2022/08/12 06:23:14;;;;;;;5.70;4.30;;;21.00;99.90;;;;;;5073071;28;20883;-80
2022/08/12 06:25:41;;;;;;;7.10;5.10;;;21.10;99.90;;;;;;5073455;28;20459;-79
2022/08/12 06:28:16;;;;;;;9.00;4.80;;;21.20;99.90;;;;;;5074356;28;20470;-82
2022/08/12 06:30:43;;;;;;;6.87;4.30;;;21.20;99.90;;;;;;5074076;28;20454;-79
2022/08/12 06:33:10;;;;;;;5.50;4.37;;;21.30;99.90;;;;;;5073477;28;20553;-82
2022/08/12 06:35:39;;;;;;;9.47;4.67;;;21.30;99.90;;;;;;5073903;28;20534;-81
2022/08/12 06:38:15;;;;;;;7.53;4.40;;;21.50;99.90;;;;;;5074407;28;20483;-82
2022/08/12 06:43:27;;;;;;;7.53;4.40;;;21.50;99.90;;;;;;5073422;28;20489;-82
2022/08/12 06:45:56;;;;;;;10.03;4.10;;;21.60;99.90;;;;;;5074463;28;20451;-82
2022/08/12 06:48:25;;;;;;;6.57;4.67;;;21.70;99.90;;;;;;5074211;28;20471;-80
2022/08/12 06:50:51;;;;;;;5.70;4.00;;;21.80;99.90;;;;;;5074662;28;20861;-82
2022/08/12 06:53:20;;;;;;;8.00;4.87;;;21.90;99.90;;;;;;5073899;28;20538;-79
2022/08/12 06:55:47;;;;;;;6.50;4.27;;;22.00;99.90;;;;;;5074235;28;20454;-80
2022/08/12 06:58:15;;;;;;;8.63;3.80;;;22.00;99.90;;;;;;5076301;28;20566;-80
2022/08/12 07:00:45;;;;;;;11.40;3.73;;;22.10;99.90;;;;;;5074551;28;20882;-80
2022/08/12 07:03:16;;;;;;;7.23;4.00;;;22.10;99.90;;;;;;5073917;28;20541;-81
2022/08/12 07:05:43;;;;;;;6.47;3.80;;;22.30;99.90;;;;;;5074392;28;20893;-79
2022/08/12 07:08:11;;;;;;;5.90;3.53;;;22.30;99.90;;;;;;5074421;28;20542;-82
2022/08/12 07:10:46;;;;;;;7.47;3.50;;;22.40;99.90;;;;;;5073746;28;20453;-80
2022/08/12 07:13:12;;;;;;;10.50;3.90;;;22.50;99.90;;;;;;5073541;28;20508;-83
2022/08/12 07:15:44;;;;;;;7.17;3.97;;;22.60;99.90;;;;;;5073781;28;20554;-84
2022/08/12 07:18:14;;;;;;;8.73;3.70;;;22.70;99.90;;;;;;5071621;28;20845;-80
2022/08/12 07:20:43;;;;;;;5.33;3.33;;;22.80;99.90;;;;;;5066229;28;20446;-80
2022/08/12 07:23:09;;;;;;;10.60;3.80;;;22.80;99.90;;;;;;5073744;28;20486;-81
2022/08/12 07:25:38;;;;;;;8.93;3.90;;;22.90;99.90;;;;;;5073915;28;20534;-82
2022/08/12 07:28:09;;;;;;;7.13;3.60;;;23.00;99.90;;;;;;5074905;28;20543;-81
2022/08/12 07:30:38;;;;;;;4.10;3.40;;;23.20;99.90;;;;;;5074006;28;20541;-82
2022/08/12 07:33:07;;;;;;;5.60;3.27;;;23.30;99.90;;;;;;5064959;28;20859;-82
2022/08/12 07:35:44;;;;;;;5.83;3.00;;;23.30;99.90;;;;;;5074914;28;20592;-81
2022/08/12 07:38:26;;;;;;;10.27;3.33;;;23.40;99.90;;;;;;5068384;28;20578;-80
2022/08/12 07:40:56;;;;;;;5.80;3.40;;;23.50;99.90;;;;;;5054333;28;20451;-79
2022/08/12 07:43:25;;;;;;;10.70;3.43;;;23.60;99.90;;;;;;5053315;28;20531;-82
2022/08/12 07:45:54;;;;;;;5.57;3.10;;;23.70;99.90;;;;;;5068113;28;20513;-81
2022/08/12 07:48:21;;;;;;;6.23;3.40;;;23.80;99.90;;;;;;5072171;28;20466;-82
2022/08/12 07:50:49;;;;;;;5.83;3.50;;;23.90;99.90;;;;;;5080464;28;20438;-83
2022/08/12 07:53:16;;;;;;;6.53;3.13;;;24.00;99.90;;;;;;5090745;28;20482;-80
2022/08/12 07:55:43;;;;;;;4.83;3.30;;;24.10;99.90;;;;;;5074490;28;20506;-80
2022/08/12 07:58:10;;;;;;;4.57;3.43;;;24.20;99.90;;;;;;5065145;28;20494;-80
2022/08/12 08:00:40;;;;;;;5.23;3.37;;;24.30;99.90;;;;;;5064545;28;20455;-81
2022/08/12 08:03:07;;;;;;;6.67;3.30;;;24.40;99.90;;;;;;5068636;28;20466;-79
2022/08/12 08:05:37;;;;;;;6.73;3.77;;;24.50;99.90;;;;;;5073274;28;20482;-80
2022/08/12 08:08:13;;;;;;;4.97;3.00;;;24.60;99.90;;;;;;5073054;28;20558;-81
2022/08/12 08:10:40;;;;;;;5.80;3.57;;;24.70;99.90;;;;;;5072957;28;20482;-80
2022/08/12 08:13:07;;;;;;;5.27;2.97;;;24.90;99.90;;;;;;5070507;28;20545;-80
2022/08/12 08:15:34;;;;;;;5.47;3.50;;;25.00;99.90;;;;;;5072944;28;20473;-79
2022/08/12 08:18:04;;;;;;;5.17;2.93;;;25.10;99.90;;;;;;5072272;28;20490;-79
2022/08/12 08:20:34;;;;;;;7.60;3.50;;;25.20;99.90;;;;;;5072867;28;20524;-79
2022/08/12 08:23:06;;;;;;;6.80;3.33;;;25.40;99.90;;;;;;5074423;28;21020;-79
2022/08/12 08:25:37;;;;;;;6.50;3.13;;;25.60;99.90;;;;;;5075844;28;20935;-78
2022/08/12 08:28:07;;;;;;;5.60;2.87;;;25.70;99.90;;;;;;5077080;28;20463;-77
2022/08/12 08:30:37;;;;;;;5.90;2.80;;;25.90;99.90;;;;;;5076392;28;20466;-79
2022/08/12 08:35:34;;;;;;;6.37;3.63;;;26.00;99.90;;;;;;5092907;22;20594;-78
2022/08/12 08:38:07;;;;;;;5.03;3.03;;;26.20;99.90;;;;;;5074959;28;20580;-79
2022/08/12 08:43:21;;;;;;;7.43;2.50;;;26.70;99.90;;;;;;5077243;28;20869;-78
2022/08/12 08:45:48;;;;;;;6.37;3.37;;;26.90;99.90;;;;;;5077619;28;20463;-78
2022/08/12 08:48:15;;;;;;;6.77;3.27;;;27.10;99.90;;;;;;5085816;28;20445;-79
2022/08/12 08:50:44;;;;;;;6.03;3.20;;;27.40;99.90;;;;;;5078584;28;20446;-79
2022/08/12 08:53:11;;;;;;;5.90;3.10;;;27.60;99.90;;;;;;5075820;28;20454;-79
2022/08/12 08:55:41;;;;;;;5.27;2.60;;;27.80;99.90;;;;;;5086568;28;20477;-78
2022/08/12 08:58:08;;;;;;;4.80;2.60;;;28.00;99.90;;;;;;5088061;28;20486;-79
2022/08/12 09:00:38;;;;;;;4.90;2.67;;;28.30;99.90;;;;;;5087527;28;20451;-79
2022/08/12 09:03:05;;;;;;;3.60;2.70;;;28.40;99.90;;;;;;5078320;28;20939;-79
2022/08/12 09:05:32;;;;;;;3.57;2.40;;;28.30;99.90;;;;;;5094664;28;20466;-78
2022/08/12 09:08:03;;;;;;;5.47;2.40;;;28.60;99.90;;;;;;5091227;28;20447;-79
2022/08/12 09:10:32;;;;;;;4.40;2.10;;;28.80;99.90;;;;;;5093091;28;20455;-80
2022/08/12 09:15:45;;;;;;;4.17;2.20;;;29.10;99.90;;;;;;5082219;28;20427;-78
2022/08/12 09:18:13;;;;;;;4.30;2.37;;;29.30;99.90;;;;;;5074794;28;20486;-79
2022/08/12 09:20:40;;;;;;;4.57;2.83;;;29.40;99.90;;;;;;5074023;28;20449;-76
2022/08/12 09:23:11;;;;;;;5.50;2.70;;;29.60;99.90;;;;;;5072892;28;20871;-77
2022/08/12 09:25:38;;;;;;;5.37;3.37;;;29.60;99.90;;;;;;5074330;28;20515;-79
2022/08/12 09:28:08;;;;;;;10.17;4.53;;;29.80;99.90;;;;;;5076912;28;20795;-79
2022/08/12 09:30:35;;;;;;;5.57;2.87;;;30.00;99.90;;;;;;5076231;28;20454;-79
2022/08/12 09:33:02;;;;;;;5.53;2.20;;;29.80;99.90;;;;;;5075003;28;20526;-78
2022/08/12 09:35:32;;;;;;;4.73;2.70;;;30.00;99.90;;;;;;5074781;28;20481;-79
2022/08/12 09:38:01;;;;;;;8.03;2.90;;;30.20;99.90;;;;;;5076272;28;20873;-79
2022/08/12 09:40:31;;;;;;;3.87;2.57;;;30.40;99.90;;;;;;5076268;28;20459;-78
2022/08/12 09:45:47;;;;;;;4.43;3.00;;;30.70;98.60;;;;;;5076069;28;20458;-79
2022/08/12 09:48:16;;;;;;;3.67;1.80;;;30.90;99.30;;;;;;5073637;28;20539;-79
2022/08/12 09:50:44;;;;;;;4.30;1.90;;;31.20;98.00;;;;;;5069717;28;20520;-78
2022/08/12 09:53:14;;;;;;;3.73;2.07;;;31.30;96.20;;;;;;5075208;28;20830;-79
2022/08/12 09:55:46;;;;;;;3.27;2.07;;;31.50;99.90;;;;;;5074752;28;20455;-80
2022/08/12 09:58:15;;;;;;;4.87;2.30;;;31.70;99.50;;;;;;5074130;28;20558;-78
2022/08/12 10:00:45;;;;;;;6.67;2.40;;;31.50;92.90;;;;;;5073597;28;20448;-78
2022/08/12 10:03:15;;;;;;;4.40;2.33;;;31.30;90.30;;;;;;5072473;28;20498;-78
2022/08/12 10:05:50;;;;;;;2.67;1.87;;;31.80;98.90;;;;;;5072605;28;20455;-78
2022/08/12 10:08:18;;;;;;;3.80;2.27;;;32.10;92.90;;;;;;5072600;28;21026;-78
2022/08/12 10:13:42;;;;;;;5.43;2.20;;;32.50;93.40;;;;;;5073199;28;20556;-78
2022/08/12 10:16:11;;;;;;;6.00;2.40;;;32.30;92.80;;;;;;5069380;28;20439;-77
2022/08/12 10:18:40;;;;;;;4.53;2.60;;;32.60;95.10;;;;;;5073030;28;20501;-76
2022/08/12 10:21:09;;;;;;;4.03;2.53;;;32.90;99.90;;;;;;5073661;28;20455;-79
2022/08/12 10:23:37;;;;;;;5.30;2.27;;;32.90;95.80;;;;;;5070252;28;20475;-76
2022/08/12 10:31:38;;;;;;;3.53;2.00;;;33.00;99.90;;;;;;5066870;28;20450;-77
2022/08/12 10:34:05;;;;;;;3.93;2.33;;;32.80;99.90;;;;;;5066194;28;20493;-76
2022/08/12 10:36:33;;;;;;;5.37;2.13;;;33.10;96.80;;;;;;5072695;28;20447;-77
2022/08/12 10:39:02;;;;;;;3.53;2.20;;;33.30;93.80;;;;;;5073474;28;20563;-76
2022/08/12 10:44:14;;;;;;;5.77;2.07;;;33.50;99.50;;;;;;5068639;28;20832;-77
2022/08/12 10:46:44;;;;;;;4.77;2.37;;;33.50;98.50;;;;;;5071878;28;20550;-77
2022/08/12 10:49:12;;;;;;;6.27;2.00;;;33.60;91.40;;;;;;5075066;28;20466;-77
2022/08/12 10:51:39;;;;;;;3.77;2.10;;;33.40;93.60;;;;;;5072768;28;20454;-77
2022/08/12 10:54:08;;;;;;;3.30;2.10;;;33.60;98.60;;;;;;5072389;28;20528;-77
2022/08/12 10:56:36;;;;;;;6.33;2.40;;;33.80;92.40;;;;;;5072191;28;20558;-77
2022/08/12 10:59:05;;;;;;;6.80;2.17;;;33.90;96.10;;;;;;5072611;28;20537;-77
2022/08/12 11:01:32;;;;;;;3.83;2.30;;;33.90;98.80;;;;;;5063680;28;20447;-76
2022/08/12 11:04:01;;;;;;;7.00;2.77;;;34.00;92.30;;;;;;5068788;28;20478;-76
2022/08/12 11:06:28;;;;;;;3.17;1.93;;;34.00;90.00;;;;;;5061020;28;20498;-78
2022/08/12 11:08:55;;;;;;;7.30;2.60;;;34.00;95.00;;;;;;5059957;28;21023;-76
2022/08/12 11:11:24;;;;;;;4.20;1.97;;;34.00;92.00;;;;;;5065553;28;20447;-78
2022/08/12 11:13:52;;;;;;;8.13;2.20;;;34.00;87.90;;;;;;5072156;28;20534;-77
2022/08/12 11:16:19;;;;;;;4.83;2.10;;;34.20;92.60;;;;;;5072135;28;20457;-78
2022/08/12 11:18:46;;;;;;;2.90;1.90;;;34.40;90.80;;;;;;5071173;28;21085;-77
2022/08/12 11:21:13;;;;;;;6.20;2.10;;;34.40;95.70;;;;;;5071875;28;20529;-78
2022/08/12 11:23:40;;;;;;;3.90;1.80;;;34.70;91.20;;;;;;5067032;28;20578;-78
2022/08/12 11:26:07;;;;;;;4.50;1.93;;;34.70;92.60;;;;;;5072229;28;21030;-78
2022/08/12 11:28:34;;;;;;;5.67;1.97;;;35.10;77.90;;;;;;5072226;28;20896;-77
2022/08/12 11:31:03;;;;;;;3.93;2.23;;;35.10;83.10;;;;;;5063941;28;20454;-77
2022/08/12 11:33:30;;;;;;;3.13;1.73;;;35.20;78.80;;;;;;5070849;28;20502;-76
2022/08/12 11:36:05;;;;;;;5.87;2.33;;;34.80;92.20;;;;;;5072538;28;20538;-77
2022/08/12 11:38:32;;;;;;;3.80;1.80;;;35.00;84.50;;;;;;5071487;28;20435;-77
2022/08/12 11:40:59;;;;;;;8.63;2.40;;;35.10;91.00;;;;;;5072237;28;20455;-78
2022/08/12 11:43:25;;;;;;;5.83;2.50;;;35.20;87.10;;;;;;5072403;28;20545;-77
2022/08/12 11:45:52;;;;;;;3.70;2.00;;;35.20;90.10;;;;;;5071713;28;20927;-77
2022/08/12 11:48:23;;;;;;;4.20;2.23;;;34.80;82.30;;;;;;5070937;28;20453;-77
2022/08/12 11:50:52;;;;;;;6.60;2.47;;;34.70;74.80;;;;;;5070731;28;20455;-76
2022/08/12 11:53:19;;;;;;;4.20;2.07;;;34.40;81.00;;;;;;5070785;28;20550;-77
2022/08/12 11:55:46;;;;;;;4.80;2.10;;;34.60;81.80;;;;;;5071436;28;21102;-77
2022/08/12 11:58:13;;;;;;;5.20;2.27;;;34.90;75.20;;;;;;5074224;28;20490;-77
2022/08/12 12:00:40;;;;;;;3.73;1.90;;;35.10;82.80;;;;;;5073975;28;20581;-77
2022/08/12 12:03:07;;;;;;;3.10;2.23;;;35.50;85.90;;;;;;5074602;28;20461;-77
2022/08/12 12:05:35;;;;;;;3.67;1.97;;;35.50;89.50;;;;;;5074573;28;20586;-77
2022/08/12 12:08:02;;;;;;;3.87;1.90;;;35.60;79.90;;;;;;5064656;28;20557;-77
2022/08/12 12:10:29;;;;;;;8.57;2.40;;;35.40;90.30;;;;;;5075653;28;20974;-77
2022/08/12 12:12:56;;;;;;;4.07;2.23;;;35.50;83.70;;;;;;5073251;28;20537;-77
2022/08/12 12:15:23;;;;;;;3.23;1.93;;;35.60;78.10;;;;;;5073019;28;20912;-77
2022/08/12 12:17:51;;;;;;;4.37;2.10;;;36.00;69.40;;;;;;5072800;28;20530;-77
2022/08/12 12:20:19;;;;;;;7.23;1.93;;;35.70;77.60;;;;;;5072323;28;20586;-77
2022/08/12 12:22:47;;;;;;;3.17;1.67;;;36.00;68.40;;;;;;5074223;28;20840;-77
2022/08/12 12:25:14;;;;;;;3.00;1.77;;;36.30;74.80;;;;;;5074512;28;20553;-77
2022/08/12 12:27:45;;;;;;;4.10;1.70;;;36.50;68.40;;;;;;5077165;28;20534;-77
2022/08/12 12:30:12;;;;;;;2.83;1.90;;;36.80;72.00;;;;;;5074366;28;20482;-76
2022/08/12 12:32:39;;;;;;;5.10;1.73;;;36.70;57.20;;;;;;5081731;28;20553;-77
2022/08/12 12:35:07;;;;;;;8.00;1.70;;;36.50;59.80;;;;;;5073515;28;20478;-76
2022/08/12 12:37:34;;;;;;;3.60;1.67;;;36.20;63.00;;;;;;5074242;28;20537;-77
2022/08/12 12:40:02;;;;;;;7.30;2.00;;;36.30;68.50;;;;;;5065856;28;20504;-77
2022/08/12 12:42:29;;;;;;;4.87;1.50;;;36.10;70.10;;;;;;5073893;28;20542;-77
2022/08/12 12:44:56;;;;;;;3.77;2.10;;;36.00;75.30;;;;;;5062807;28;21033;-77
2022/08/12 12:47:23;;;;;;;3.43;1.67;;;36.60;79.00;;;;;;5073205;28;20955;-77
2022/08/12 12:49:49;;;;;;;3.23;1.50;;;36.90;69.80;;;;;;5077035;28;20533;-78
2022/08/12 12:52:16;;;;;;;5.40;2.10;;;36.90;69.70;;;;;;5082870;28;20958;-77
2022/08/12 12:54:51;;;;;;;3.43;1.60;;;37.20;64.20;;;;;;5093649;28;20480;-77
2022/08/12 12:57:19;;;;;;;2.80;1.60;;;37.20;67.20;;;;;;5063782;28;21024;-75
2022/08/12 13:00:13;;;;;;;4.33;1.73;;;37.10;66.70;;;;;;5072358;28;20574;-76
2022/08/12 13:02:39;;;;;;;5.47;1.70;;;36.90;65.10;;;;;;5060574;28;20427;-76
2022/08/12 13:05:06;;;;;;;3.40;1.70;;;37.20;55.40;;;;;;5072339;28;20470;-76
2022/08/12 13:07:39;;;;;;;3.03;1.80;;;36.70;59.20;;;;;;5072369;28;21041;-76
2022/08/12 13:10:07;;;;;;;3.37;1.43;;;37.00;70.20;;;;;;5064340;28;20439;-76
2022/08/12 13:12:35;;;;;;;6.57;1.83;;;37.40;62.60;;;;;;5056208;28;20469;-75
2022/08/12 13:15:07;;;;;;;3.73;1.80;;;37.70;58.50;;;;;;5053368;28;20493;-76
2022/08/12 13:17:34;;;;;;;4.43;2.17;;;37.60;63.80;;;;;;5048072;28;20459;-77
2022/08/12 13:20:03;;;;;;;3.60;1.70;;;37.80;71.30;;;;;;5056076;28;21010;-76
2022/08/12 13:22:30;;;;;;;2.90;1.70;;;38.00;57.80;;;;;;5055008;28;20923;-75
2022/08/12 13:24:58;;;;;;;4.20;1.73;;;37.70;58.80;;;;;;5069097;28;20554;-76
2022/08/12 13:27:28;;;;;;;2.77;1.57;;;37.40;58.10;;;;;;5063017;28;20505;-76
2022/08/12 13:29:56;;;;;;;4.77;2.40;;;37.60;61.70;;;;;;5069749;28;20447;-75
2022/08/12 13:32:28;;;;;;;3.40;2.00;;;38.00;61.70;;;;;;5077473;28;20541;-76
2022/08/12 13:34:55;;;;;;;2.80;1.40;;;38.10;59.00;;;;;;5073766;28;20483;-76
2022/08/12 13:37:23;;;;;;;4.30;1.80;;;37.60;65.90;;;;;;5077149;28;20454;-75
2022/08/12 13:39:51;;;;;;;4.43;1.97;;;37.60;66.30;;;;;;5077583;28;20548;-76
2022/08/12 13:42:18;;;;;;;2.87;1.70;;;37.50;59.50;;;;;;5057284;28;20463;-77
2022/08/12 13:44:45;;;;;;;5.50;1.87;;;37.30;63.20;;;;;;5072454;28;21012;-76
2022/08/12 13:47:14;;;;;;;5.47;1.93;;;36.60;52.90;;;;;;5066374;28;21194;-75
2022/08/12 13:49:41;;;;;;;3.17;1.70;;;37.30;64.30;;;;;;5071378;28;20454;-76
2022/08/12 13:52:08;;;;;;;3.03;1.80;;;37.60;56.60;;;;;;5072941;28;20478;-77
2022/08/12 13:54:35;;;;;;;3.53;1.60;;;37.80;58.00;;;;;;5072536;28;20987;-76
2022/08/12 13:57:02;;;;;;;4.77;2.10;;;38.30;57.70;;;;;;5074356;28;20459;-77
2022/08/12 13:59:29;;;;;;;5.90;1.70;;;38.10;57.50;;;;;;5072891;28;20495;-76
2022/08/12 14:01:56;;;;;;;5.00;1.90;;;37.90;55.20;;;;;;5066283;28;20554;-76
2022/08/12 14:04:25;;;;;;;3.07;1.67;;;37.60;53.90;;;;;;5065954;28;20510;-76
2022/08/12 14:06:52;;;;;;;4.00;2.07;;;37.50;58.90;;;;;;5068709;28;20708;-76
2022/08/12 14:09:19;;;;;;;3.37;1.60;;;37.50;61.80;;;;;;5072008;28;20459;-75
2022/08/12 14:11:47;;;;;;;4.30;2.10;;;38.00;58.10;;;;;;5069780;28;20455;-75
2022/08/12 14:14:14;;;;;;;4.77;1.70;;;38.10;59.30;;;;;;5068583;28;20592;-76
2022/08/12 14:16:41;;;;;;;3.33;1.70;;;38.40;61.00;;;;;;5066353;28;20494;-76
2022/08/12 14:19:07;;;;;;;3.07;1.90;;;38.60;64.40;;;;;;5067840;28;20458;-76
2022/08/12 14:21:37;;;;;;;4.53;1.90;;;38.10;57.40;;;;;;5070462;28;20870;-74
2022/08/12 14:24:07;;;;;;;6.70;1.73;;;38.20;53.90;;;;;;5067873;28;20481;-75
2022/08/12 14:26:35;;;;;;;4.37;2.13;;;37.80;54.20;;;;;;5069032;28;20456;-76
2022/08/12 14:29:02;;;;;;;3.80;1.80;;;37.70;53.50;;;;;;5062837;28;20462;-75
2022/08/12 14:31:29;;;;;;;3.33;2.13;;;37.50;55.90;;;;;;5072855;28;20454;-76
2022/08/12 14:33:58;;;;;;;3.30;1.60;;;37.20;54.30;;;;;;5067180;28;20515;-76
2022/08/12 14:36:26;;;;;;;6.83;1.87;;;36.90;52.50;;;;;;5069890;28;20451;-76
2022/08/12 14:38:55;;;;;;;3.90;2.00;;;36.70;55.50;;;;;;5070560;28;20621;-76
2022/08/12 14:41:24;;;;;;;5.20;2.10;;;36.70;57.70;;;;;;5071666;28;20482;-76